sensor_id;sensor_type;location;lat;lon;timestamp;P1;durP1;ratioP1;P2;durP2;ratioP2
6527;SDS011;64597;42.664;23.256;2024-01-10T00:01:12;3.13;;;1.60;;
6527;SDS011;64597;42.664;23.256;2024-01-10T00:03:37;4.07;;;1.77;;
6527;SDS011;64597;42.664;23.256;2024-01-10T00:06:02;2.53;;;1.67;;
6527;SDS011;64597;42.664;23.256;2024-01-10T00:08:28;2.78;;;1.83;;
6527;SDS011;64597;42.664;23.256;2024-01-10T00:10:53;4.05;;;1.10;;
6527;SDS011;64597;42.664;23.256;2024-01-10T00:13:19;3.38;;;1.75;;
6527;SDS011;64597;42.664;23.256;2024-01-10T00:15:46;6.05;;;1.65;;
6527;SDS011;64597;42.664;23.256;2024-01-10T00:18:12;3.20;;;1.48;;
6527;SDS011;64597;42.664;23.256;2024-01-10T00:20:38;3.85;;;1.63;;
6527;SDS011;64597;42.664;23.256;2024-01-10T00:23:04;2.08;;;1.17;;
6527;SDS011;64597;42.664;23.256;2024-01-10T00:25:31;2.22;;;1.13;;
6527;SDS011;64597;42.664;23.256;2024-01-10T00:27:57;1.95;;;1.73;;
6527;SDS011;64597;42.664;23.256;2024-01-10T00:30:22;1.95;;;1.38;;
6527;SDS011;64597;42.664;23.256;2024-01-10T00:32:48;3.13;;;1.50;;
6527;SDS011;64597;42.664;23.256;2024-01-10T00:35:13;2.28;;;1.27;;
6527;SDS011;64597;42.664;23.256;2024-01-10T00:37:39;1.60;;;0.88;;
6527;SDS011;64597;42.664;23.256;2024-01-10T00:40:04;2.20;;;0.90;;
6527;SDS011;64597;42.664;23.256;2024-01-10T00:42:30;2.75;;;1.50;;
6527;SDS011;64597;42.664;23.256;2024-01-10T00:44:56;0.77;;;0.75;;
6527;SDS011;64597;42.664;23.256;2024-01-10T00:47:21;3.80;;;1.55;;
6527;SDS011;64597;42.664;23.256;2024-01-10T00:49:47;1.30;;;1.10;;
6527;SDS011;64597;42.664;23.256;2024-01-10T00:52:12;1.45;;;0.68;;
6527;SDS011;64597;42.664;23.256;2024-01-10T00:54:38;1.27;;;0.95;;
6527;SDS011;64597;42.664;23.256;2024-01-10T00:57:03;1.13;;;0.95;;
6527;SDS011;64597;42.664;23.256;2024-01-10T00:59:29;1.77;;;1.13;;
6527;SDS011;64597;42.664;23.256;2024-01-10T01:01:54;1.73;;;1.40;;
6527;SDS011;64597;42.664;23.256;2024-01-10T01:04:19;2.55;;;1.45;;
6527;SDS011;64597;42.664;23.256;2024-01-10T01:06:45;1.23;;;1.13;;
6527;SDS011;64597;42.664;23.256;2024-01-10T01:09:11;2.47;;;0.80;;
6527;SDS011;64597;42.664;23.256;2024-01-10T01:11:38;1.00;;;0.90;;
6527;SDS011;64597;42.664;23.256;2024-01-10T01:14:04;5.05;;;1.65;;
6527;SDS011;64597;42.664;23.256;2024-01-10T01:16:29;1.25;;;0.80;;
6527;SDS011;64597;42.664;23.256;2024-01-10T01:18:54;1.42;;;1.13;;
6527;SDS011;64597;42.664;23.256;2024-01-10T01:21:20;4.65;;;1.42;;
6527;SDS011;64597;42.664;23.256;2024-01-10T01:23:46;1.00;;;0.80;;
6527;SDS011;64597;42.664;23.256;2024-01-10T01:26:11;1.98;;;1.08;;
6527;SDS011;64597;42.664;23.256;2024-01-10T01:28:38;3.60;;;1.08;;
6527;SDS011;64597;42.664;23.256;2024-01-10T01:31:04;1.60;;;1.10;;
6527;SDS011;64597;42.664;23.256;2024-01-10T01:33:29;4.05;;;1.60;;
6527;SDS011;64597;42.664;23.256;2024-01-10T01:35:55;2.10;;;1.08;;
6527;SDS011;64597;42.664;23.256;2024-01-10T01:38:20;2.90;;;1.33;;
6527;SDS011;64597;42.664;23.256;2024-01-10T01:40:46;1.85;;;1.48;;
6527;SDS011;64597;42.664;23.256;2024-01-10T01:43:21;1.65;;;1.17;;
6527;SDS011;64597;42.664;23.256;2024-01-10T01:45:54;3.60;;;1.23;;
6527;SDS011;64597;42.664;23.256;2024-01-10T01:48:21;3.35;;;1.90;;
6527;SDS011;64597;42.664;23.256;2024-01-10T01:50:48;2.50;;;1.05;;
6527;SDS011;64597;42.664;23.256;2024-01-10T01:53:16;2.05;;;1.17;;
6527;SDS011;64597;42.664;23.256;2024-01-10T01:55:43;3.25;;;0.93;;
6527;SDS011;64597;42.664;23.256;2024-01-10T01:58:10;2.70;;;1.25;;
6527;SDS011;64597;42.664;23.256;2024-01-10T02:00:36;1.65;;;0.95;;
6527;SDS011;64597;42.664;23.256;2024-01-10T02:03:02;2.05;;;1.00;;
6527;SDS011;64597;42.664;23.256;2024-01-10T02:05:29;1.02;;;0.88;;
6527;SDS011;64597;42.664;23.256;2024-01-10T02:07:55;4.80;;;1.17;;
6527;SDS011;64597;42.664;23.256;2024-01-10T02:10:20;1.50;;;1.08;;
6527;SDS011;64597;42.664;23.256;2024-01-10T02:12:46;1.13;;;0.82;;
6527;SDS011;64597;42.664;23.256;2024-01-10T02:15:12;2.58;;;1.00;;
6527;SDS011;64597;42.664;23.256;2024-01-10T02:17:39;1.88;;;0.80;;
6527;SDS011;64597;42.664;23.256;2024-01-10T02:20:11;3.60;;;1.10;;
6527;SDS011;64597;42.664;23.256;2024-01-10T02:22:37;6.43;;;1.10;;
6527;SDS011;64597;42.664;23.256;2024-01-10T02:25:04;2.65;;;1.42;;
6527;SDS011;64597;42.664;23.256;2024-01-10T02:27:31;2.05;;;1.02;;
6527;SDS011;64597;42.664;23.256;2024-01-10T02:29:57;2.20;;;0.75;;
6527;SDS011;64597;42.664;23.256;2024-01-10T02:32:24;1.85;;;0.95;;
6527;SDS011;64597;42.664;23.256;2024-01-10T02:34:49;2.70;;;1.13;;
6527;SDS011;64597;42.664;23.256;2024-01-10T02:37:15;0.88;;;0.88;;
6527;SDS011;64597;42.664;23.256;2024-01-10T02:39:40;1.70;;;0.85;;
6527;SDS011;64597;42.664;23.256;2024-01-10T02:42:06;3.95;;;1.88;;
6527;SDS011;64597;42.664;23.256;2024-01-10T02:44:31;3.40;;;1.88;;
6527;SDS011;64597;42.664;23.256;2024-01-10T02:46:57;1.55;;;1.13;;
6527;SDS011;64597;42.664;23.256;2024-01-10T02:49:22;3.45;;;1.40;;
6527;SDS011;64597;42.664;23.256;2024-01-10T02:51:48;1.88;;;1.15;;
6527;SDS011;64597;42.664;23.256;2024-01-10T02:54:13;1.63;;;1.33;;
6527;SDS011;64597;42.664;23.256;2024-01-10T02:56:39;2.58;;;0.88;;
6527;SDS011;64597;42.664;23.256;2024-01-10T02:59:04;4.13;;;1.33;;
6527;SDS011;64597;42.664;23.256;2024-01-10T03:01:30;2.35;;;0.90;;
6527;SDS011;64597;42.664;23.256;2024-01-10T03:03:55;1.65;;;1.13;;
6527;SDS011;64597;42.664;23.256;2024-01-10T03:06:20;4.13;;;1.48;;
6527;SDS011;64597;42.664;23.256;2024-01-10T03:08:46;1.70;;;0.75;;
6527;SDS011;64597;42.664;23.256;2024-01-10T03:11:11;1.35;;;0.88;;
6527;SDS011;64597;42.664;23.256;2024-01-10T03:13:37;1.15;;;1.00;;
6527;SDS011;64597;42.664;23.256;2024-01-10T03:16:04;3.17;;;1.25;;
6527;SDS011;64597;42.664;23.256;2024-01-10T03:18:29;1.63;;;1.20;;
6527;SDS011;64597;42.664;23.256;2024-01-10T03:20:55;1.55;;;0.63;;
6527;SDS011;64597;42.664;23.256;2024-01-10T03:23:21;2.55;;;1.52;;
6527;SDS011;64597;42.664;23.256;2024-01-10T03:25:47;3.35;;;1.90;;
6527;SDS011;64597;42.664;23.256;2024-01-10T03:28:16;2.05;;;1.83;;
6527;SDS011;64597;42.664;23.256;2024-01-10T03:30:44;2.58;;;1.05;;
6527;SDS011;64597;42.664;23.256;2024-01-10T03:33:10;4.93;;;2.72;;
6527;SDS011;64597;42.664;23.256;2024-01-10T03:35:35;2.33;;;1.85;;
6527;SDS011;64597;42.664;23.256;2024-01-10T03:38:01;7.00;;;1.63;;
6527;SDS011;64597;42.664;23.256;2024-01-10T03:40:26;2.78;;;1.92;;
6527;SDS011;64597;42.664;23.256;2024-01-10T03:42:52;3.05;;;2.00;;
6527;SDS011;64597;42.664;23.256;2024-01-10T03:45:17;1.40;;;0.95;;
6527;SDS011;64597;42.664;23.256;2024-01-10T03:47:46;2.13;;;1.00;;
6527;SDS011;64597;42.664;23.256;2024-01-10T03:50:15;3.38;;;1.85;;
6527;SDS011;64597;42.664;23.256;2024-01-10T03:52:42;4.40;;;1.45;;
6527;SDS011;64597;42.664;23.256;2024-01-10T03:55:08;2.58;;;0.90;;
6527;SDS011;64597;42.664;23.256;2024-01-10T03:57:34;2.03;;;1.13;;
6527;SDS011;64597;42.664;23.256;2024-01-10T03:59:59;2.25;;;1.23;;
6527;SDS011;64597;42.664;23.256;2024-01-10T04:02:25;1.20;;;1.10;;
6527;SDS011;64597;42.664;23.256;2024-01-10T04:04:52;2.55;;;1.05;;
6527;SDS011;64597;42.664;23.256;2024-01-10T04:07:18;2.17;;;1.33;;
6527;SDS011;64597;42.664;23.256;2024-01-10T04:09:44;2.63;;;1.50;;
6527;SDS011;64597;42.664;23.256;2024-01-10T04:12:09;2.55;;;0.80;;
6527;SDS011;64597;42.664;23.256;2024-01-10T04:14:34;2.38;;;1.35;;
6527;SDS011;64597;42.664;23.256;2024-01-10T04:17:00;2.28;;;0.85;;
6527;SDS011;64597;42.664;23.256;2024-01-10T04:19:26;1.65;;;1.52;;
6527;SDS011;64597;42.664;23.256;2024-01-10T04:21:52;1.80;;;0.73;;
6527;SDS011;64597;42.664;23.256;2024-01-10T04:24:17;1.38;;;0.82;;
6527;SDS011;64597;42.664;23.256;2024-01-10T04:26:43;3.00;;;1.02;;
6527;SDS011;64597;42.664;23.256;2024-01-10T04:29:08;0.98;;;0.90;;
6527;SDS011;64597;42.664;23.256;2024-01-10T04:31:34;1.80;;;1.17;;
6527;SDS011;64597;42.664;23.256;2024-01-10T04:34:01;1.25;;;0.77;;
6527;SDS011;64597;42.664;23.256;2024-01-10T04:36:26;2.45;;;1.58;;
6527;SDS011;64597;42.664;23.256;2024-01-10T04:38:52;1.13;;;0.82;;
6527;SDS011;64597;42.664;23.256;2024-01-10T04:41:18;2.95;;;1.50;;
6527;SDS011;64597;42.664;23.256;2024-01-10T04:43:44;2.13;;;0.95;;
6527;SDS011;64597;42.664;23.256;2024-01-10T04:46:09;1.77;;;1.13;;
6527;SDS011;64597;42.664;23.256;2024-01-10T04:48:35;1.73;;;1.00;;
6527;SDS011;64597;42.664;23.256;2024-01-10T04:51:01;0.82;;;0.73;;
6527;SDS011;64597;42.664;23.256;2024-01-10T04:53:27;2.33;;;1.10;;
6527;SDS011;64597;42.664;23.256;2024-01-10T04:55:52;4.28;;;1.70;;
6527;SDS011;64597;42.664;23.256;2024-01-10T04:58:17;3.25;;;1.55;;
6527;SDS011;64597;42.664;23.256;2024-01-10T05:00:43;2.10;;;1.35;;
6527;SDS011;64597;42.664;23.256;2024-01-10T05:03:08;2.30;;;1.27;;
6527;SDS011;64597;42.664;23.256;2024-01-10T05:05:34;2.10;;;1.48;;
6527;SDS011;64597;42.664;23.256;2024-01-10T05:07:59;2.47;;;2.13;;
6527;SDS011;64597;42.664;23.256;2024-01-10T05:10:26;3.83;;;2.35;;
6527;SDS011;64597;42.664;23.256;2024-01-10T05:12:51;2.72;;;1.65;;
6527;SDS011;64597;42.664;23.256;2024-01-10T05:15:17;3.47;;;2.25;;
6527;SDS011;64597;42.664;23.256;2024-01-10T05:17:42;2.40;;;1.90;;
6527;SDS011;64597;42.664;23.256;2024-01-10T05:20:08;4.05;;;2.05;;
6527;SDS011;64597;42.664;23.256;2024-01-10T05:22:34;5.55;;;2.10;;
6527;SDS011;64597;42.664;23.256;2024-01-10T05:25:00;5.55;;;2.47;;
6527;SDS011;64597;42.664;23.256;2024-01-10T05:27:26;17.40;;;7.88;;
6527;SDS011;64597;42.664;23.256;2024-01-10T05:29:52;6.50;;;4.57;;
6527;SDS011;64597;42.664;23.256;2024-01-10T05:32:17;5.47;;;2.50;;
6527;SDS011;64597;42.664;23.256;2024-01-10T05:34:43;4.43;;;3.05;;
6527;SDS011;64597;42.664;23.256;2024-01-10T05:37:09;8.20;;;3.50;;
6527;SDS011;64597;42.664;23.256;2024-01-10T05:39:35;2.90;;;2.50;;
6527;SDS011;64597;42.664;23.256;2024-01-10T05:42:00;4.57;;;3.10;;
6527;SDS011;64597;42.664;23.256;2024-01-10T05:44:27;4.05;;;2.35;;
6527;SDS011;64597;42.664;23.256;2024-01-10T05:46:53;9.55;;;3.90;;
6527;SDS011;64597;42.664;23.256;2024-01-10T05:49:19;4.40;;;1.92;;
6527;SDS011;64597;42.664;23.256;2024-01-10T05:51:44;3.88;;;2.53;;
6527;SDS011;64597;42.664;23.256;2024-01-10T05:54:09;4.40;;;3.03;;
6527;SDS011;64597;42.664;23.256;2024-01-10T05:56:35;3.45;;;2.42;;
6527;SDS011;64597;42.664;23.256;2024-01-10T05:59:00;2.60;;;1.90;;
6527;SDS011;64597;42.664;23.256;2024-01-10T06:01:26;5.22;;;1.98;;
6527;SDS011;64597;42.664;23.256;2024-01-10T06:03:52;6.22;;;3.15;;
6527;SDS011;64597;42.664;23.256;2024-01-10T06:06:17;5.00;;;2.10;;
6527;SDS011;64597;42.664;23.256;2024-01-10T06:08:43;4.60;;;2.80;;
6527;SDS011;64597;42.664;23.256;2024-01-10T06:11:08;5.03;;;2.65;;
6527;SDS011;64597;42.664;23.256;2024-01-10T06:13:35;4.25;;;2.58;;
6527;SDS011;64597;42.664;23.256;2024-01-10T06:16:07;4.00;;;1.80;;
6527;SDS011;64597;42.664;23.256;2024-01-10T06:19:05;3.80;;;1.50;;
6527;SDS011;64597;42.664;23.256;2024-01-10T06:21:31;6.13;;;2.45;;
6527;SDS011;64597;42.664;23.256;2024-01-10T06:23:56;4.97;;;2.70;;
6527;SDS011;64597;42.664;23.256;2024-01-10T06:26:22;6.50;;;2.42;;
6527;SDS011;64597;42.664;23.256;2024-01-10T06:28:47;4.10;;;2.75;;
6527;SDS011;64597;42.664;23.256;2024-01-10T06:31:13;3.15;;;2.20;;
6527;SDS011;64597;42.664;23.256;2024-01-10T06:33:39;5.45;;;2.75;;
6527;SDS011;64597;42.664;23.256;2024-01-10T06:36:04;6.93;;;2.35;;
6527;SDS011;64597;42.664;23.256;2024-01-10T06:38:30;5.03;;;2.28;;
6527;SDS011;64597;42.664;23.256;2024-01-10T06:40:56;2.53;;;1.95;;
6527;SDS011;64597;42.664;23.256;2024-01-10T06:43:21;4.70;;;2.35;;
6527;SDS011;64597;42.664;23.256;2024-01-10T06:45:46;3.95;;;2.10;;
6527;SDS011;64597;42.664;23.256;2024-01-10T06:48:13;3.40;;;1.73;;
6527;SDS011;64597;42.664;23.256;2024-01-10T06:50:38;3.78;;;2.75;;
6527;SDS011;64597;42.664;23.256;2024-01-10T06:53:04;3.70;;;2.22;;
6527;SDS011;64597;42.664;23.256;2024-01-10T06:55:30;3.50;;;2.58;;
6527;SDS011;64597;42.664;23.256;2024-01-10T06:57:55;8.43;;;2.83;;
6527;SDS011;64597;42.664;23.256;2024-01-10T07:00:21;3.13;;;2.10;;
6527;SDS011;64597;42.664;23.256;2024-01-10T07:02:47;6.55;;;2.50;;
6527;SDS011;64597;42.664;23.256;2024-01-10T07:05:14;4.35;;;2.80;;
6527;SDS011;64597;42.664;23.256;2024-01-10T07:07:40;5.22;;;2.45;;
6527;SDS011;64597;42.664;23.256;2024-01-10T07:10:06;12.00;;;4.22;;
6527;SDS011;64597;42.664;23.256;2024-01-10T07:12:35;7.15;;;4.20;;
6527;SDS011;64597;42.664;23.256;2024-01-10T07:15:00;6.03;;;3.50;;
6527;SDS011;64597;42.664;23.256;2024-01-10T07:17:28;7.03;;;3.38;;
6527;SDS011;64597;42.664;23.256;2024-01-10T07:19:54;5.18;;;3.47;;
6527;SDS011;64597;42.664;23.256;2024-01-10T07:22:21;5.00;;;2.38;;
6527;SDS011;64597;42.664;23.256;2024-01-10T07:24:47;2.88;;;2.40;;
6527;SDS011;64597;42.664;23.256;2024-01-10T07:27:13;3.95;;;1.75;;
6527;SDS011;64597;42.664;23.256;2024-01-10T07:29:39;4.22;;;3.00;;
6527;SDS011;64597;42.664;23.256;2024-01-10T07:32:05;6.13;;;3.15;;
6527;SDS011;64597;42.664;23.256;2024-01-10T07:34:36;4.68;;;2.83;;
6527;SDS011;64597;42.664;23.256;2024-01-10T07:37:04;3.67;;;2.00;;
6527;SDS011;64597;42.664;23.256;2024-01-10T07:39:29;2.85;;;2.15;;
6527;SDS011;64597;42.664;23.256;2024-01-10T07:41:55;4.47;;;1.88;;
6527;SDS011;64597;42.664;23.256;2024-01-10T07:44:20;1.85;;;1.17;;
6527;SDS011;64597;42.664;23.256;2024-01-10T07:46:46;1.98;;;1.38;;
6527;SDS011;64597;42.664;23.256;2024-01-10T07:49:11;4.75;;;1.42;;
6527;SDS011;64597;42.664;23.256;2024-01-10T07:51:36;3.20;;;2.08;;
6527;SDS011;64597;42.664;23.256;2024-01-10T07:54:02;3.70;;;2.28;;
6527;SDS011;64597;42.664;23.256;2024-01-10T07:56:27;3.55;;;1.88;;
6527;SDS011;64597;42.664;23.256;2024-01-10T07:58:53;4.72;;;2.22;;
6527;SDS011;64597;42.664;23.256;2024-01-10T08:01:18;6.35;;;2.47;;
6527;SDS011;64597;42.664;23.256;2024-01-10T08:03:43;5.85;;;2.88;;
6527;SDS011;64597;42.664;23.256;2024-01-10T08:06:09;3.80;;;1.95;;
6527;SDS011;64597;42.664;23.256;2024-01-10T08:08:37;3.95;;;2.13;;
6527;SDS011;64597;42.664;23.256;2024-01-10T08:11:02;2.38;;;1.40;;
6527;SDS011;64597;42.664;23.256;2024-01-10T08:13:28;2.92;;;1.75;;
6527;SDS011;64597;42.664;23.256;2024-01-10T08:15:53;5.55;;;1.60;;
6527;SDS011;64597;42.664;23.256;2024-01-10T08:18:19;3.42;;;1.50;;
6527;SDS011;64597;42.664;23.256;2024-01-10T08:20:44;5.28;;;2.60;;
6527;SDS011;64597;42.664;23.256;2024-01-10T08:23:10;7.32;;;2.40;;
6527;SDS011;64597;42.664;23.256;2024-01-10T08:25:35;12.05;;;2.83;;
6527;SDS011;64597;42.664;23.256;2024-01-10T08:28:01;4.97;;;2.75;;
6527;SDS011;64597;42.664;23.256;2024-01-10T08:30:27;2.97;;;1.95;;
6527;SDS011;64597;42.664;23.256;2024-01-10T08:32:52;2.70;;;2.22;;
6527;SDS011;64597;42.664;23.256;2024-01-10T08:35:18;7.30;;;1.95;;
6527;SDS011;64597;42.664;23.256;2024-01-10T08:37:44;4.25;;;1.75;;
6527;SDS011;64597;42.664;23.256;2024-01-10T08:40:11;2.95;;;1.48;;
6527;SDS011;64597;42.664;23.256;2024-01-10T08:42:39;5.13;;;1.88;;
6527;SDS011;64597;42.664;23.256;2024-01-10T08:45:05;2.63;;;2.10;;
6527;SDS011;64597;42.664;23.256;2024-01-10T08:47:30;3.08;;;1.90;;
6527;SDS011;64597;42.664;23.256;2024-01-10T08:49:57;3.47;;;1.83;;
6527;SDS011;64597;42.664;23.256;2024-01-10T08:52:23;3.75;;;1.83;;
6527;SDS011;64597;42.664;23.256;2024-01-10T08:54:49;2.42;;;1.45;;
6527;SDS011;64597;42.664;23.256;2024-01-10T08:57:14;3.97;;;2.08;;
6527;SDS011;64597;42.664;23.256;2024-01-10T08:59:43;2.45;;;1.73;;
6527;SDS011;64597;42.664;23.256;2024-01-10T09:02:08;3.10;;;1.80;;
6527;SDS011;64597;42.664;23.256;2024-01-10T09:04:34;4.28;;;2.10;;
6527;SDS011;64597;42.664;23.256;2024-01-10T09:06:59;3.20;;;1.67;;
6527;SDS011;64597;42.664;23.256;2024-01-10T09:09:25;2.42;;;1.50;;
6527;SDS011;64597;42.664;23.256;2024-01-10T09:11:50;4.78;;;2.33;;
6527;SDS011;64597;42.664;23.256;2024-01-10T09:14:15;4.95;;;2.67;;
6527;SDS011;64597;42.664;23.256;2024-01-10T09:16:41;4.25;;;3.17;;
6527;SDS011;64597;42.664;23.256;2024-01-10T09:19:06;6.03;;;2.50;;
6527;SDS011;64597;42.664;23.256;2024-01-10T09:21:32;7.28;;;2.83;;
6527;SDS011;64597;42.664;23.256;2024-01-10T09:23:57;7.13;;;3.05;;
6527;SDS011;64597;42.664;23.256;2024-01-10T09:26:23;5.35;;;3.40;;
6527;SDS011;64597;42.664;23.256;2024-01-10T09:28:48;7.13;;;2.38;;
6527;SDS011;64597;42.664;23.256;2024-01-10T09:31:14;5.88;;;2.90;;
6527;SDS011;64597;42.664;23.256;2024-01-10T09:33:40;8.35;;;3.35;;
6527;SDS011;64597;42.664;23.256;2024-01-10T09:36:05;6.35;;;2.90;;
6527;SDS011;64597;42.664;23.256;2024-01-10T09:38:34;7.55;;;3.90;;
6527;SDS011;64597;42.664;23.256;2024-01-10T09:41:02;8.25;;;3.05;;
6527;SDS011;64597;42.664;23.256;2024-01-10T09:43:30;10.25;;;6.32;;
6527;SDS011;64597;42.664;23.256;2024-01-10T09:45:56;8.30;;;3.70;;
6527;SDS011;64597;42.664;23.256;2024-01-10T09:48:24;4.32;;;2.85;;
6527;SDS011;64597;42.664;23.256;2024-01-10T09:50:50;5.72;;;3.42;;
6527;SDS011;64597;42.664;23.256;2024-01-10T09:53:26;7.75;;;3.85;;
6527;SDS011;64597;42.664;23.256;2024-01-10T09:55:52;4.13;;;2.15;;
6527;SDS011;64597;42.664;23.256;2024-01-10T09:58:22;9.90;;;3.80;;
6527;SDS011;64597;42.664;23.256;2024-01-10T10:00:48;5.03;;;2.95;;
6527;SDS011;64597;42.664;23.256;2024-01-10T10:03:13;7.22;;;3.30;;
6527;SDS011;64597;42.664;23.256;2024-01-10T10:05:42;7.20;;;3.00;;
6527;SDS011;64597;42.664;23.256;2024-01-10T10:08:09;6.68;;;3.80;;
6527;SDS011;64597;42.664;23.256;2024-01-10T10:10:36;5.28;;;3.17;;
6527;SDS011;64597;42.664;23.256;2024-01-10T10:13:07;6.38;;;3.17;;
6527;SDS011;64597;42.664;23.256;2024-01-10T10:15:35;5.03;;;3.00;;
6527;SDS011;64597;42.664;23.256;2024-01-10T10:18:01;8.00;;;3.55;;
6527;SDS011;64597;42.664;23.256;2024-01-10T10:20:28;9.13;;;3.75;;
6527;SDS011;64597;42.664;23.256;2024-01-10T10:23:01;12.40;;;3.83;;
6527;SDS011;64597;42.664;23.256;2024-01-10T10:25:28;14.73;;;4.50;;
6527;SDS011;64597;42.664;23.256;2024-01-10T10:27:58;8.68;;;3.92;;
6527;SDS011;64597;42.664;23.256;2024-01-10T10:30:25;6.80;;;3.33;;
6527;SDS011;64597;42.664;23.256;2024-01-10T10:32:54;8.93;;;5.25;;
6527;SDS011;64597;42.664;23.256;2024-01-10T10:35:20;7.43;;;3.88;;
6527;SDS011;64597;42.664;23.256;2024-01-10T10:37:47;8.95;;;5.00;;
6527;SDS011;64597;42.664;23.256;2024-01-10T10:40:14;8.85;;;5.43;;
6527;SDS011;64597;42.664;23.256;2024-01-10T10:42:41;7.22;;;4.65;;
6527;SDS011;64597;42.664;23.256;2024-01-10T10:45:11;6.57;;;4.00;;
6527;SDS011;64597;42.664;23.256;2024-01-10T10:47:43;7.25;;;3.28;;
6527;SDS011;64597;42.664;23.256;2024-01-10T10:50:19;5.88;;;3.05;;
6527;SDS011;64597;42.664;23.256;2024-01-10T10:52:46;6.47;;;3.22;;
6527;SDS011;64597;42.664;23.256;2024-01-10T10:55:14;6.82;;;3.17;;
6527;SDS011;64597;42.664;23.256;2024-01-10T10:57:41;9.07;;;3.80;;
6527;SDS011;64597;42.664;23.256;2024-01-10T11:00:09;8.40;;;3.65;;
6527;SDS011;64597;42.664;23.256;2024-01-10T11:02:36;8.30;;;3.60;;
6527;SDS011;64597;42.664;23.256;2024-01-10T11:05:02;7.13;;;3.88;;
6527;SDS011;64597;42.664;23.256;2024-01-10T11:07:30;6.03;;;3.05;;
6527;SDS011;64597;42.664;23.256;2024-01-10T11:09:56;11.75;;;3.78;;
6527;SDS011;64597;42.664;23.256;2024-01-10T11:15:39;12.48;;;5.03;;
6527;SDS011;64597;42.664;23.256;2024-01-10T11:18:32;11.52;;;5.47;;
6527;SDS011;64597;42.664;23.256;2024-01-10T11:21:18;11.68;;;4.97;;
6527;SDS011;64597;42.664;23.256;2024-01-10T11:24:00;9.48;;;5.05;;
6527;SDS011;64597;42.664;23.256;2024-01-10T11:26:27;10.40;;;5.18;;
6527;SDS011;64597;42.664;23.256;2024-01-10T11:28:52;8.52;;;5.32;;
6527;SDS011;64597;42.664;23.256;2024-01-10T11:31:28;10.27;;;6.30;;
6527;SDS011;64597;42.664;23.256;2024-01-10T11:33:55;9.48;;;5.25;;
6527;SDS011;64597;42.664;23.256;2024-01-10T11:36:21;7.93;;;5.10;;
6527;SDS011;64597;42.664;23.256;2024-01-10T11:46:54;13.82;;;5.13;;
6527;SDS011;64597;42.664;23.256;2024-01-10T11:49:20;8.82;;;4.40;;
6527;SDS011;64597;42.664;23.256;2024-01-10T11:51:52;5.10;;;3.83;;
6527;SDS011;64597;42.664;23.256;2024-01-10T11:54:37;12.32;;;6.13;;
6527;SDS011;64597;42.664;23.256;2024-01-10T11:57:10;12.05;;;5.32;;
6527;SDS011;64597;42.664;23.256;2024-01-10T11:59:37;8.30;;;3.92;;
6527;SDS011;64597;42.664;23.256;2024-01-10T12:02:03;12.15;;;4.68;;
6527;SDS011;64597;42.664;23.256;2024-01-10T12:04:31;8.68;;;4.63;;
6527;SDS011;64597;42.664;23.256;2024-01-10T12:06:57;8.75;;;4.65;;
6527;SDS011;64597;42.664;23.256;2024-01-10T12:09:23;9.38;;;5.00;;
6527;SDS011;64597;42.664;23.256;2024-01-10T12:11:49;11.93;;;5.10;;
6527;SDS011;64597;42.664;23.256;2024-01-10T12:14:15;7.53;;;4.38;;
6527;SDS011;64597;42.664;23.256;2024-01-10T12:16:41;6.55;;;4.40;;
6527;SDS011;64597;42.664;23.256;2024-01-10T12:19:06;11.55;;;5.13;;
6527;SDS011;64597;42.664;23.256;2024-01-10T12:21:32;11.55;;;4.88;;
6527;SDS011;64597;42.664;23.256;2024-01-10T12:23:57;14.48;;;5.53;;
6527;SDS011;64597;42.664;23.256;2024-01-10T12:26:23;8.63;;;3.95;;
6527;SDS011;64597;42.664;23.256;2024-01-10T12:28:55;12.70;;;6.32;;
6527;SDS011;64597;42.664;23.256;2024-01-10T12:31:22;9.70;;;4.75;;
6527;SDS011;64597;42.664;23.256;2024-01-10T12:36:16;10.73;;;4.97;;
6527;SDS011;64597;42.664;23.256;2024-01-10T12:38:43;7.55;;;5.32;;
6527;SDS011;64597;42.664;23.256;2024-01-10T12:41:12;7.90;;;5.35;;
6527;SDS011;64597;42.664;23.256;2024-01-10T12:43:39;13.13;;;5.65;;
6527;SDS011;64597;42.664;23.256;2024-01-10T12:46:06;9.57;;;4.55;;
6527;SDS011;64597;42.664;23.256;2024-01-10T12:48:36;11.18;;;4.70;;
6527;SDS011;64597;42.664;23.256;2024-01-10T12:51:06;10.90;;;5.60;;
6527;SDS011;64597;42.664;23.256;2024-01-10T12:53:35;13.20;;;5.28;;
6527;SDS011;64597;42.664;23.256;2024-01-10T12:56:03;10.85;;;5.63;;
6527;SDS011;64597;42.664;23.256;2024-01-10T12:58:30;9.48;;;4.80;;
6527;SDS011;64597;42.664;23.256;2024-01-10T13:00:55;9.90;;;5.93;;
6527;SDS011;64597;42.664;23.256;2024-01-10T13:03:21;10.70;;;6.45;;
6527;SDS011;64597;42.664;23.256;2024-01-10T13:05:48;9.93;;;5.70;;
6527;SDS011;64597;42.664;23.256;2024-01-10T13:08:13;12.70;;;6.68;;
6527;SDS011;64597;42.664;23.256;2024-01-10T13:10:39;9.57;;;5.00;;
6527;SDS011;64597;42.664;23.256;2024-01-10T13:13:04;12.98;;;5.45;;
6527;SDS011;64597;42.664;23.256;2024-01-10T13:15:30;13.90;;;6.72;;
6527;SDS011;64597;42.664;23.256;2024-01-10T13:17:56;20.17;;;7.53;;
6527;SDS011;64597;42.664;23.256;2024-01-10T13:20:22;18.30;;;7.00;;
6527;SDS011;64597;42.664;23.256;2024-01-10T13:22:49;14.93;;;6.55;;
6527;SDS011;64597;42.664;23.256;2024-01-10T13:25:15;13.18;;;6.32;;
6527;SDS011;64597;42.664;23.256;2024-01-10T13:27:41;13.45;;;7.25;;
6527;SDS011;64597;42.664;23.256;2024-01-10T13:30:07;9.55;;;5.07;;
6527;SDS011;64597;42.664;23.256;2024-01-10T13:32:36;11.82;;;6.72;;
6527;SDS011;64597;42.664;23.256;2024-01-10T13:35:02;14.88;;;6.03;;
6527;SDS011;64597;42.664;23.256;2024-01-10T13:37:28;11.43;;;5.20;;
6527;SDS011;64597;42.664;23.256;2024-01-10T13:39:54;10.70;;;5.70;;
6527;SDS011;64597;42.664;23.256;2024-01-10T13:42:20;8.88;;;5.20;;
6527;SDS011;64597;42.664;23.256;2024-01-10T13:44:45;10.80;;;5.45;;
6527;SDS011;64597;42.664;23.256;2024-01-10T13:47:11;13.07;;;6.60;;
6527;SDS011;64597;42.664;23.256;2024-01-10T13:49:37;9.27;;;5.53;;
6527;SDS011;64597;42.664;23.256;2024-01-10T13:52:02;12.57;;;5.57;;
6527;SDS011;64597;42.664;23.256;2024-01-10T13:54:28;9.23;;;5.35;;
6527;SDS011;64597;42.664;23.256;2024-01-10T13:56:54;9.90;;;5.45;;
6527;SDS011;64597;42.664;23.256;2024-01-10T13:59:19;12.48;;;5.78;;
6527;SDS011;64597;42.664;23.256;2024-01-10T14:01:45;14.30;;;6.20;;
6527;SDS011;64597;42.664;23.256;2024-01-10T14:04:10;10.88;;;5.43;;
6527;SDS011;64597;42.664;23.256;2024-01-10T14:06:36;10.70;;;5.93;;
6527;SDS011;64597;42.664;23.256;2024-01-10T14:09:01;10.88;;;5.88;;
6527;SDS011;64597;42.664;23.256;2024-01-10T14:11:27;13.48;;;6.00;;
6527;SDS011;64597;42.664;23.256;2024-01-10T14:13:52;13.60;;;6.70;;
6527;SDS011;64597;42.664;23.256;2024-01-10T14:16:19;9.63;;;5.03;;
6527;SDS011;64597;42.664;23.256;2024-01-10T14:18:44;15.48;;;6.80;;
6527;SDS011;64597;42.664;23.256;2024-01-10T14:21:12;11.95;;;5.82;;
6527;SDS011;64597;42.664;23.256;2024-01-10T14:23:37;13.85;;;6.78;;
6527;SDS011;64597;42.664;23.256;2024-01-10T14:26:03;11.75;;;6.63;;
6527;SDS011;64597;42.664;23.256;2024-01-10T14:28:30;20.65;;;8.00;;
6527;SDS011;64597;42.664;23.256;2024-01-10T14:30:58;15.77;;;7.22;;
6527;SDS011;64597;42.664;23.256;2024-01-10T14:33:25;14.13;;;7.57;;
6527;SDS011;64597;42.664;23.256;2024-01-10T14:35:50;11.30;;;5.78;;
6527;SDS011;64597;42.664;23.256;2024-01-10T14:38:16;14.30;;;6.85;;
6527;SDS011;64597;42.664;23.256;2024-01-10T14:40:41;14.65;;;7.50;;
6527;SDS011;64597;42.664;23.256;2024-01-10T14:43:07;22.40;;;10.50;;
6527;SDS011;64597;42.664;23.256;2024-01-10T14:45:32;22.95;;;11.00;;
6527;SDS011;64597;42.664;23.256;2024-01-10T14:47:58;19.63;;;10.30;;
6527;SDS011;64597;42.664;23.256;2024-01-10T14:50:23;13.68;;;8.52;;
6527;SDS011;64597;42.664;23.256;2024-01-10T14:52:49;17.35;;;8.85;;
6527;SDS011;64597;42.664;23.256;2024-01-10T14:55:15;13.25;;;7.78;;